If you wish to contribute or participate in the discussions about articles you are invited to join SKYbrary as a registered user

 Actions

Eindhoven

From SKYbrary Wiki

EHEH /
Revision as of 13:48, 12 April 2010 by Editor1 (talk | contribs) (Created page with '{{Airport |Airport_Name=Eindhoven |ICAO_Region=EUR |ICAO_Territory=EH |Location=Eindhoven, Netherlands |Coordinates=51° 27′ 0″ N, 5° 22′ 30″ E }} __NOTOC__ =Eindhoven A…')
(diff) ← Older revision | Latest revision (diff) | Newer revision → (diff)
Airport
ICAO: EHEH
Summary
Name Eindhoven
Region Europe
Territory Netherlands NL.gif
Location Eindhoven, Netherlands
Serving
Coordinates 51° 27' 0.00" N, 5° 22' 30.00" E
Runways
Designator Length Width Surface ROPS
4/22 3000 m9,842.52 ft <br /> 45 m147.638 ft <br /> ASP yes/yes


METAR
Observation EHEH 051025Z AUTO 02010KT 360V060 9999 NCD 04/M04 Q1029 BLU NOSIG
Station Eindhoven
Date/Time 05 March 2021 10:25:00
Wind direction 20°
Wind speed 10 kts
Lowest cloud amount no clouds detected
Temperature 4°C
Dew point
Humidity 55%
QNH 1029 hPa
Weather condition n/a


Eindhoven Airport

ICAO: EHEH IATA: EIN

Description

International airport serving...

Climatology

Maps

Terrain

Loading map...

Airport Layout

Loading map...

Accidents & Serious Incidents at or in vicinity of EHEH